Time;durP1;ratioP1;P1;durP2;ratioP2;P2;SDS_P1;SDS_P2;PMS_P1;PMS_P2;Temp;Humidity;BMP_temperature;BMP_pressure;BME280_temperature;BME280_humidity;BME280_pressure;Samples;Min_cycle;Max_cycle;Signal;HPM_P1;HPM_P2
2024/03/19 00:00:48;;;;;;;0.10;0.10;;;11.80;99.90;;;;;;4968695;28;20054;-73
2024/03/19 00:03:14;;;;;;;0.95;0.45;;;11.80;99.90;;;;;;4952311;28;20055;-73
2024/03/19 00:05:40;;;;;;;1.45;0.40;;;11.80;99.90;;;;;;4974780;28;20814;-73
2024/03/19 00:08:06;;;;;;;0.57;0.32;;;11.80;99.90;;;;;;4970219;28;20042;-73
2024/03/19 00:10:32;;;;;;;0.40;0.30;;;11.80;99.90;;;;;;4987624;28;20052;-73
2024/03/19 00:12:58;;;;;;;0.73;0.40;;;11.80;99.90;;;;;;4971441;28;20077;-72
2024/03/19 00:15:24;;;;;;;0.50;0.20;;;11.80;99.90;;;;;;4987073;28;20057;-73
2024/03/19 00:17:52;;;;;;;1.02;0.47;;;11.80;99.90;;;;;;4970037;28;20049;-73
2024/03/19 00:20:19;;;;;;;0.30;0.20;;;11.80;99.90;;;;;;4985075;28;20050;-73
2024/03/19 00:22:45;;;;;;;0.38;0.20;;;11.70;99.90;;;;;;4963871;28;20108;-73
2024/03/19 00:25:10;;;;;;;1.00;0.30;;;11.80;99.90;;;;;;4964653;28;20054;-73
2024/03/19 00:27:36;;;;;;;0.30;0.15;;;11.80;99.90;;;;;;4980822;28;20054;-73
2024/03/19 00:30:03;;;;;;;0.50;0.30;;;11.80;99.90;;;;;;4933188;28;20098;-73
2024/03/19 00:32:32;;;;;;;0.60;0.40;;;11.80;99.90;;;;;;4932752;28;20116;-73
2024/03/19 00:34:58;;;;;;;0.90;0.30;;;11.80;99.90;;;;;;4981059;28;20054;-73
2024/03/19 00:37:24;;;;;;;0.30;0.30;;;11.80;99.90;;;;;;4955411;28;20775;-73
2024/03/19 00:39:50;;;;;;;0.38;0.20;;;11.80;99.90;;;;;;4970168;28;20058;-73
2024/03/19 00:42:15;;;;;;;0.55;0.20;;;11.80;99.90;;;;;;4987221;28;20050;-73
2024/03/19 00:44:41;;;;;;;0.40;0.10;;;11.80;99.90;;;;;;5003168;28;20148;-72
2024/03/19 00:47:07;;;;;;;0.85;0.30;;;11.80;99.90;;;;;;4953414;28;20061;-73
2024/03/19 00:49:33;;;;;;;0.20;0.20;;;11.80;99.90;;;;;;4967042;28;20120;-73
2024/03/19 00:52:00;;;;;;;1.20;0.30;;;11.80;99.90;;;;;;4951464;28;20058;-72
2024/03/19 00:54:26;;;;;;;1.45;0.40;;;11.90;99.90;;;;;;4964977;28;20454;-73
2024/03/19 00:56:52;;;;;;;0.45;0.28;;;11.80;99.90;;;;;;4963936;28;20054;-73
2024/03/19 00:59:18;;;;;;;1.10;0.40;;;11.80;99.90;;;;;;4952241;28;20058;-73
2024/03/19 01:01:45;;;;;;;1.20;0.60;;;11.80;99.90;;;;;;4983472;28;20046;-73
2024/03/19 01:04:11;;;;;;;0.73;0.30;;;11.80;99.90;;;;;;4999535;28;20404;-73
2024/03/19 01:06:37;;;;;;;0.80;0.50;;;11.80;99.90;;;;;;4969841;28;20046;-73
2024/03/19 01:09:05;;;;;;;0.50;0.47;;;11.80;99.90;;;;;;4979500;28;20058;-73
2024/03/19 01:11:34;;;;;;;0.52;0.30;;;11.90;99.90;;;;;;4966126;28;20053;-72
2024/03/19 01:14:00;;;;;;;0.28;0.20;;;11.80;99.90;;;;;;4967142;28;20096;-74
2024/03/19 01:16:26;;;;;;;0.70;0.20;;;11.80;99.90;;;;;;4982903;28;20069;-73
2024/03/19 01:18:52;;;;;;;0.90;0.30;;;11.90;99.90;;;;;;4966141;28;20050;-73
2024/03/19 01:21:18;;;;;;;1.15;0.40;;;11.80;99.90;;;;;;4967169;28;20064;-72
2024/03/19 01:23:46;;;;;;;0.30;0.20;;;11.80;99.90;;;;;;4950209;28;20061;-73
2024/03/19 01:26:12;;;;;;;1.75;0.45;;;11.80;99.90;;;;;;4966561;28;20053;-73
2024/03/19 01:28:38;;;;;;;0.20;0.20;;;11.80;99.90;;;;;;4951172;28;20094;-73
2024/03/19 01:31:05;;;;;;;0.43;0.20;;;11.80;99.90;;;;;;4983367;28;20097;-73
2024/03/19 01:33:31;;;;;;;0.65;0.30;;;11.90;99.90;;;;;;4982027;28;20441;-73
2024/03/19 01:35:57;;;;;;;0.38;0.30;;;11.80;99.90;;;;;;4966660;28;20066;-73
2024/03/19 01:38:25;;;;;;;0.20;0.20;;;11.80;99.90;;;;;;4982412;28;20053;-73
2024/03/19 01:40:51;;;;;;;0.85;0.47;;;11.80;99.90;;;;;;4986571;28;20533;-73
2024/03/19 01:43:20;;;;;;;0.40;0.32;;;11.80;99.90;;;;;;4954723;28;20055;-74
2024/03/19 01:46:07;;;;;;;2.08;0.45;;;11.70;99.90;;;;;;4970745;28;20053;-73
2024/03/19 01:48:33;;;;;;;0.85;0.40;;;11.70;99.90;;;;;;4976713;28;20108;-73
2024/03/19 01:50:59;;;;;;;0.90;0.30;;;11.70;99.90;;;;;;4970082;28;20562;-73
2024/03/19 01:53:25;;;;;;;0.20;0.20;;;11.70;99.90;;;;;;4957822;28;20364;-73
2024/03/19 01:55:52;;;;;;;0.30;0.30;;;11.70;99.90;;;;;;4984229;28;20538;-73
2024/03/19 01:58:17;;;;;;;0.80;0.40;;;11.60;99.90;;;;;;4970707;28;20148;-74
2024/03/19 02:00:44;;;;;;;0.63;0.30;;;11.60;99.90;;;;;;4970872;28;20779;-73
2024/03/19 02:03:10;;;;;;;0.20;0.20;;;11.60;99.90;;;;;;4970416;28;20121;-73
2024/03/19 02:05:36;;;;;;;0.40;0.28;;;11.50;99.90;;;;;;4958056;28;20112;-73
2024/03/19 02:08:02;;;;;;;0.38;0.30;;;11.50;99.90;;;;;;4973211;28;20496;-73
2024/03/19 02:10:28;;;;;;;0.32;0.30;;;11.40;99.90;;;;;;5006264;28;20050;-73
2024/03/19 02:12:54;;;;;;;0.85;0.30;;;11.40;99.90;;;;;;5006166;28;20064;-73
2024/03/19 02:15:20;;;;;;;0.30;0.20;;;11.30;99.90;;;;;;5005606;28;20420;-73
2024/03/19 02:17:47;;;;;;;0.90;0.30;;;11.20;99.90;;;;;;4956969;28;20062;-73
2024/03/19 02:20:13;;;;;;;0.30;0.30;;;11.20;99.90;;;;;;4974292;28;20057;-73
2024/03/19 02:22:45;;;;;;;0.68;0.25;;;11.10;99.90;;;;;;4988482;28;20112;-73
2024/03/19 02:25:10;;;;;;;0.60;0.40;;;11.10;1.00;;;;;;4973132;28;20057;-73
2024/03/19 02:27:37;;;;;;;0.20;0.20;;;11.10;1.00;;;;;;4989247;28;20057;-73
2024/03/19 02:30:03;;;;;;;1.30;0.38;;;11.10;1.00;;;;;;4989478;28;20053;-73
2024/03/19 02:32:29;;;;;;;0.30;0.30;;;11.10;1.00;;;;;;4992749;28;20414;-73
2024/03/19 02:34:55;;;;;;;0.17;0.17;;;11.10;1.00;;;;;;4981715;28;20058;-73
2024/03/19 02:37:21;;;;;;;0.50;0.30;;;11.00;1.00;;;;;;4985070;28;20133;-73
2024/03/19 02:39:47;;;;;;;0.30;0.28;;;11.00;1.00;;;;;;4987715;28;20058;-73
2024/03/19 02:42:13;;;;;;;0.28;0.22;;;11.00;1.00;;;;;;4990344;28;20068;-73
2024/03/19 02:44:39;;;;;;;0.55;0.20;;;11.00;11.80;;;;;;4973039;28;20058;-73
2024/03/19 02:47:05;;;;;;;0.73;0.38;;;11.00;57.40;;;;;;5003788;28;20053;-73
2024/03/19 02:49:31;;;;;;;0.30;0.30;;;11.10;63.70;;;;;;5008351;28;20057;-73
2024/03/19 02:51:57;;;;;;;0.43;0.20;;;11.10;61.30;;;;;;5007734;28;20374;-73
2024/03/19 02:54:23;;;;;;;0.57;0.30;;;11.10;66.80;;;;;;4985230;28;20080;-73
2024/03/19 02:56:49;;;;;;;0.50;0.30;;;11.10;46.30;;;;;;4991161;28;20054;-73
2024/03/19 02:59:14;;;;;;;0.30;0.30;;;11.10;48.30;;;;;;4991014;28;20567;-73
2024/03/19 03:01:40;;;;;;;0.98;0.40;;;11.20;37.80;;;;;;4990905;28;20056;-73
2024/03/19 03:04:06;;;;;;;0.40;0.40;;;11.20;21.10;;;;;;4990330;28;20081;-73
2024/03/19 03:06:32;;;;;;;0.52;0.38;;;11.20;11.40;;;;;;4990969;28;20049;-73
2024/03/19 03:08:58;;;;;;;0.45;0.45;;;11.20;6.20;;;;;;4990123;28;20081;-73
2024/03/19 03:11:24;;;;;;;0.50;0.40;;;11.20;1.00;;;;;;5006731;28;20397;-73
2024/03/19 03:13:50;;;;;;;0.55;0.28;;;11.20;6.40;;;;;;4974709;28;20165;-73
2024/03/19 03:16:16;;;;;;;0.30;0.30;;;11.20;1.00;;;;;;4991093;28;20054;-73
2024/03/19 03:18:42;;;;;;;0.70;0.40;;;11.20;2.40;;;;;;5006820;28;20073;-73
2024/03/19 03:21:07;;;;;;;0.47;0.22;;;11.20;1.00;;;;;;4990368;28;20133;-73
2024/03/19 03:23:34;;;;;;;0.50;0.22;;;11.20;1.00;;;;;;4973520;28;20661;-73
2024/03/19 03:26:00;;;;;;;0.20;0.20;;;11.30;1.00;;;;;;4990054;28;20429;-73
2024/03/19 03:28:26;;;;;;;0.47;0.30;;;11.30;1.00;;;;;;4990415;28;20124;-73
2024/03/19 03:30:52;;;;;;;0.32;0.20;;;11.30;1.00;;;;;;5007002;28;20057;-73
2024/03/19 03:33:17;;;;;;;1.08;0.40;;;11.30;1.00;;;;;;5003210;28;20137;-73
2024/03/19 03:35:43;;;;;;;0.30;0.30;;;11.20;1.00;;;;;;4986696;28;20050;-73
2024/03/19 03:38:09;;;;;;;0.20;0.20;;;11.20;1.00;;;;;;4985873;28;20046;-73
2024/03/19 03:40:36;;;;;;;0.30;0.30;;;11.20;1.00;;;;;;4986366;28;20064;-73
2024/03/19 03:43:02;;;;;;;0.25;0.25;;;11.30;1.00;;;;;;4986746;28;20066;-73
2024/03/19 03:45:28;;;;;;;0.63;0.38;;;11.20;1.00;;;;;;4987100;28;20054;-73
2024/03/19 03:47:54;;;;;;;0.95;0.50;;;11.30;99.90;;;;;;4969761;28;20876;-73
2024/03/19 03:50:20;;;;;;;0.75;0.47;;;11.20;99.90;;;;;;4989837;28;20061;-73
2024/03/19 03:52:46;;;;;;;0.30;0.30;;;11.20;99.90;;;;;;4979679;28;20046;-73
2024/03/19 03:55:12;;;;;;;0.38;0.38;;;11.20;99.90;;;;;;4986781;28;20523;-73
2024/03/19 03:57:38;;;;;;;0.28;0.28;;;11.10;99.90;;;;;;4973783;28;20045;-73
2024/03/19 04:00:10;;;;;;;0.20;0.20;;;11.10;99.90;;;;;;4990225;28;20076;-73
2024/03/19 04:02:41;;;;;;;1.05;0.40;;;11.00;99.90;;;;;;4989503;28;20054;-73
2024/03/19 04:05:08;;;;;;;0.50;0.40;;;11.00;99.90;;;;;;4973551;28;20054;-73
2024/03/19 04:07:43;;;;;;;0.35;0.30;;;10.90;99.90;;;;;;4970264;28;20104;-73
2024/03/19 04:10:10;;;;;;;0.38;0.38;;;10.90;99.90;;;;;;4986329;28;20061;-73
2024/03/19 04:12:35;;;;;;;0.73;0.30;;;10.90;99.90;;;;;;4986173;28;20465;-73
2024/03/19 04:15:06;;;;;;;0.20;0.20;;;10.90;99.90;;;;;;4954009;28;20069;-73
2024/03/19 04:17:33;;;;;;;0.90;0.45;;;10.80;99.90;;;;;;4970044;28;20065;-73
2024/03/19 04:19:59;;;;;;;0.30;0.30;;;10.80;99.90;;;;;;4970013;28;20046;-73
2024/03/19 04:22:26;;;;;;;0.75;0.30;;;10.80;99.90;;;;;;4953752;28;20058;-73
2024/03/19 04:24:52;;;;;;;0.70;0.40;;;10.80;99.90;;;;;;4968650;28;20050;-73
2024/03/19 04:27:18;;;;;;;0.30;0.30;;;10.80;99.90;;;;;;4975888;28;20061;-73
2024/03/19 04:29:45;;;;;;;0.30;0.30;;;10.80;99.90;;;;;;4989517;28;20080;-73
2024/03/19 04:32:11;;;;;;;0.65;0.47;;;10.80;99.90;;;;;;4989346;28;20145;-73
2024/03/19 04:34:38;;;;;;;0.95;0.30;;;10.80;99.90;;;;;;4988799;28;20745;-73
2024/03/19 04:37:03;;;;;;;0.90;0.40;;;10.80;99.90;;;;;;4989305;28;20054;-74
2024/03/19 04:39:29;;;;;;;0.40;0.30;;;10.80;99.90;;;;;;4988185;28;20060;-73
2024/03/19 04:41:55;;;;;;;0.55;0.40;;;10.80;99.90;;;;;;4989383;28;20132;-73
2024/03/19 04:44:21;;;;;;;0.82;0.55;;;10.80;99.90;;;;;;4979868;28;20722;-74
2024/03/19 04:46:47;;;;;;;0.30;0.30;;;10.80;99.90;;;;;;4969721;28;20561;-73
2024/03/19 04:49:12;;;;;;;0.75;0.30;;;10.80;99.90;;;;;;4967907;28;20082;-73
2024/03/19 04:51:38;;;;;;;0.30;0.30;;;10.80;99.90;;;;;;4984865;28;20057;-73
2024/03/19 04:54:04;;;;;;;0.52;0.30;;;10.80;99.90;;;;;;4968576;28;20065;-73
2024/03/19 04:56:30;;;;;;;0.60;0.38;;;10.90;99.90;;;;;;5001458;28;20050;-73
2024/03/19 04:58:56;;;;;;;0.60;0.40;;;10.90;99.90;;;;;;5004708;28;20136;-73
2024/03/19 05:01:22;;;;;;;0.38;0.30;;;10.90;99.90;;;;;;4969958;28;20054;-73
2024/03/19 05:03:49;;;;;;;0.20;0.20;;;10.90;99.90;;;;;;4971308;28;20050;-73
2024/03/19 05:06:15;;;;;;;0.68;0.28;;;10.90;99.90;;;;;;4985181;28;20587;-73
2024/03/19 05:08:41;;;;;;;0.55;0.30;;;11.00;99.90;;;;;;4974045;28;20045;-73
2024/03/19 05:11:07;;;;;;;0.47;0.30;;;11.00;99.90;;;;;;4939799;28;20058;-73
2024/03/19 05:13:33;;;;;;;0.60;0.38;;;11.00;99.90;;;;;;4968231;28;20059;-73
2024/03/19 05:15:59;;;;;;;0.43;0.30;;;11.00;99.90;;;;;;4969382;28;20050;-73
2024/03/19 05:18:25;;;;;;;0.85;0.45;;;11.00;99.90;;;;;;4984421;28;20062;-73
2024/03/19 05:20:51;;;;;;;0.20;0.20;;;11.00;99.90;;;;;;4953152;28;20132;-73
2024/03/19 05:23:17;;;;;;;1.40;0.40;;;11.00;99.90;;;;;;4983774;28;20061;-73
2024/03/19 05:25:42;;;;;;;1.25;0.30;;;11.00;99.90;;;;;;5000308;28;20058;-74
2024/03/19 05:28:10;;;;;;;1.58;0.50;;;11.10;99.90;;;;;;4988547;28;20050;-74
2024/03/19 05:30:36;;;;;;;0.20;0.20;;;11.10;99.90;;;;;;4988525;28;20058;-74
2024/03/19 05:33:02;;;;;;;0.82;0.35;;;11.10;99.90;;;;;;4971608;28;20054;-74
2024/03/19 05:35:28;;;;;;;1.00;0.57;;;11.10;99.90;;;;;;4988123;28;20058;-73
2024/03/19 05:37:54;;;;;;;0.93;0.30;;;11.10;99.90;;;;;;4971260;28;20159;-74
2024/03/19 05:40:20;;;;;;;1.73;0.40;;;11.10;99.90;;;;;;4987777;28;20656;-74
2024/03/19 05:42:46;;;;;;;0.28;0.28;;;11.10;99.90;;;;;;4972123;28;20058;-74
2024/03/19 05:45:12;;;;;;;0.70;0.20;;;11.10;99.90;;;;;;4968742;28;20363;-75
2024/03/19 05:47:39;;;;;;;1.13;0.30;;;11.10;99.90;;;;;;4951277;28;20057;-74
2024/03/19 05:50:08;;;;;;;0.47;0.30;;;11.10;99.90;;;;;;4972311;28;20089;-75
2024/03/19 05:52:34;;;;;;;1.25;0.40;;;11.10;99.90;;;;;;4976512;28;20053;-75
2024/03/19 05:55:00;;;;;;;0.30;0.30;;;11.10;99.90;;;;;;4981216;28;20050;-74
2024/03/19 05:57:26;;;;;;;0.85;0.38;;;11.20;99.90;;;;;;4971182;28;20061;-75
2024/03/19 05:59:51;;;;;;;0.43;0.40;;;11.20;99.90;;;;;;4979151;28;20050;-73
2024/03/19 06:02:17;;;;;;;0.38;0.30;;;11.20;99.90;;;;;;4975546;28;20408;-75
2024/03/19 06:04:43;;;;;;;2.22;0.68;;;11.20;99.90;;;;;;4962562;28;20049;-74
2024/03/19 06:07:09;;;;;;;1.30;0.80;;;11.20;99.90;;;;;;4972235;28;20053;-74
2024/03/19 06:09:41;;;;;;;0.22;0.22;;;11.20;99.90;;;;;;4966591;28;20096;-74
2024/03/19 06:12:07;;;;;;;0.30;0.30;;;11.20;99.90;;;;;;4992578;28;20065;-74
2024/03/19 06:14:32;;;;;;;0.52;0.40;;;11.20;99.90;;;;;;4993147;28;20058;-74
2024/03/19 06:16:58;;;;;;;0.77;0.32;;;11.30;99.90;;;;;;4966521;28;20685;-74
2024/03/19 06:19:24;;;;;;;0.25;0.25;;;11.20;99.90;;;;;;4968068;28;20141;-74
2024/03/19 06:21:51;;;;;;;0.40;0.30;;;11.30;99.90;;;;;;4946666;28;20066;-74
2024/03/19 06:24:17;;;;;;;1.95;0.43;;;11.30;99.90;;;;;;4951321;28;20050;-74
2024/03/19 06:26:43;;;;;;;1.30;0.50;;;11.30;99.90;;;;;;4967035;28;20097;-74
2024/03/19 06:29:08;;;;;;;0.43;0.22;;;11.30;99.90;;;;;;4982935;28;20108;-75
2024/03/19 06:31:34;;;;;;;0.17;0.17;;;11.30;99.90;;;;;;4981267;28;20160;-75
2024/03/19 06:34:00;;;;;;;0.52;0.35;;;11.30;99.90;;;;;;4992957;28;20065;-75
2024/03/19 06:36:26;;;;;;;0.60;0.30;;;11.40;99.90;;;;;;4949998;28;20091;-74
2024/03/19 06:38:52;;;;;;;0.52;0.30;;;11.40;99.90;;;;;;4950607;28;20053;-74
2024/03/19 06:41:18;;;;;;;0.88;0.30;;;11.40;99.90;;;;;;4966667;28;20054;-74
2024/03/19 06:43:45;;;;;;;1.58;0.80;;;11.40;99.90;;;;;;4946947;28;20065;-74
2024/03/19 06:46:12;;;;;;;0.45;0.30;;;11.40;99.90;;;;;;4931738;28;20436;-75
2024/03/19 06:48:38;;;;;;;0.93;0.43;;;11.40;99.90;;;;;;4982023;28;20448;-74
2024/03/19 06:51:05;;;;;;;0.30;0.30;;;11.50;99.90;;;;;;4980696;28;20746;-74
2024/03/19 06:53:31;;;;;;;0.30;0.28;;;11.50;99.90;;;;;;4948265;28;20584;-74
2024/03/19 06:55:57;;;;;;;0.73;0.40;;;11.60;99.90;;;;;;4970076;28;20529;-74
2024/03/19 06:58:23;;;;;;;0.77;0.40;;;11.60;99.90;;;;;;4982920;28;20058;-74
2024/03/19 07:00:51;;;;;;;0.85;0.60;;;11.70;99.90;;;;;;4965175;28;20061;-74
2024/03/19 07:03:20;;;;;;;0.70;0.40;;;11.70;99.90;;;;;;4981531;28;20096;-74
2024/03/19 07:05:46;;;;;;;0.55;0.40;;;11.70;99.90;;;;;;4997537;28;20054;-74
2024/03/19 07:08:12;;;;;;;1.10;0.32;;;11.70;99.90;;;;;;4997590;28;20103;-74
2024/03/19 07:10:38;;;;;;;0.95;0.50;;;11.70;99.90;;;;;;4981469;28;20497;-74
2024/03/19 07:13:04;;;;;;;0.73;0.47;;;11.70;99.90;;;;;;4997775;28;20057;-74
2024/03/19 07:15:30;;;;;;;1.45;0.70;;;11.70;99.90;;;;;;4998288;28;20058;-74
2024/03/19 07:17:56;;;;;;;2.03;0.77;;;11.70;99.90;;;;;;4996418;28;20092;-73
2024/03/19 07:20:24;;;;;;;1.50;0.70;;;11.80;99.90;;;;;;4998600;28;20057;-72
2024/03/19 07:22:50;;;;;;;0.55;0.50;;;11.90;99.90;;;;;;4994516;28;20104;-73
2024/03/19 07:25:16;;;;;;;0.60;0.45;;;11.90;99.90;;;;;;4983536;28;20054;-73
2024/03/19 07:27:42;;;;;;;1.38;0.50;;;12.00;99.90;;;;;;4979468;28;20050;-73
2024/03/19 07:30:12;;;;;;;0.70;0.50;;;12.10;98.30;;;;;;4979719;28;20054;-73
2024/03/19 07:32:39;;;;;;;1.13;0.55;;;12.20;95.00;;;;;;4978555;28;20054;-72
2024/03/19 07:35:07;;;;;;;1.02;0.60;;;12.30;92.10;;;;;;4978362;28;20065;-73
2024/03/19 07:37:37;;;;;;;1.33;0.65;;;12.40;91.90;;;;;;4988220;28;20467;-73
2024/03/19 07:40:13;;;;;;;1.35;0.50;;;12.50;81.20;;;;;;4981305;28;20162;-73
2024/03/19 07:42:40;;;;;;;0.70;0.40;;;12.50;75.40;;;;;;4972978;28;20042;-72
2024/03/19 07:45:06;;;;;;;0.30;0.20;;;12.60;76.50;;;;;;4984059;28;20058;-73
2024/03/19 07:47:33;;;;;;;0.57;0.40;;;12.70;76.00;;;;;;4968510;28;20141;-73
2024/03/19 07:49:59;;;;;;;0.80;0.40;;;12.70;65.50;;;;;;4978350;28;20054;-73
2024/03/19 07:52:27;;;;;;;1.33;0.47;;;12.90;67.70;;;;;;4988162;28;20670;-74
2024/03/19 07:54:53;;;;;;;0.73;0.50;;;12.90;57.80;;;;;;4979447;28;20100;-73
2024/03/19 07:57:19;;;;;;;1.33;0.60;;;13.00;53.60;;;;;;4997229;28;20120;-73
2024/03/19 07:59:45;;;;;;;0.75;0.60;;;13.00;49.50;;;;;;4996971;28;20065;-73
2024/03/19 08:02:10;;;;;;;2.08;0.50;;;13.10;48.10;;;;;;4990648;28;20046;-73
2024/03/19 08:04:36;;;;;;;1.70;0.57;;;13.20;41.00;;;;;;4983146;28;20065;-73
2024/03/19 08:07:03;;;;;;;1.65;0.52;;;13.20;40.00;;;;;;4996375;28;20137;-73
2024/03/19 08:09:29;;;;;;;1.27;0.50;;;13.30;39.50;;;;;;4995308;28;20058;-73
2024/03/19 08:11:55;;;;;;;1.08;0.43;;;13.40;34.40;;;;;;4997045;28;20050;-73
2024/03/19 08:14:21;;;;;;;0.50;0.40;;;13.40;24.40;;;;;;4984861;28;20054;-73
2024/03/19 08:16:47;;;;;;;1.70;0.75;;;13.40;22.60;;;;;;4997462;28;20054;-73
2024/03/19 08:19:13;;;;;;;0.88;0.45;;;13.40;19.30;;;;;;4994171;28;20149;-73
2024/03/19 08:21:39;;;;;;;1.98;0.50;;;13.50;19.50;;;;;;4997119;28;20172;-73
2024/03/19 08:24:05;;;;;;;0.77;0.40;;;13.50;19.20;;;;;;4985992;28;20674;-73
2024/03/19 08:26:33;;;;;;;1.65;0.40;;;13.50;19.20;;;;;;4977409;28;20058;-73
2024/03/19 08:29:03;;;;;;;0.90;0.60;;;13.50;16.70;;;;;;4982413;28;20565;-73
2024/03/19 08:31:28;;;;;;;1.00;0.52;;;13.40;16.10;;;;;;4978199;28;20089;-73
2024/03/19 08:33:55;;;;;;;1.85;0.60;;;13.40;18.90;;;;;;4980225;28;20493;-73
2024/03/19 08:36:20;;;;;;;0.70;0.40;;;13.50;19.60;;;;;;4994753;28;20504;-72
2024/03/19 08:38:47;;;;;;;0.55;0.50;;;13.50;17.50;;;;;;4985128;28;20058;-73
2024/03/19 08:41:13;;;;;;;0.73;0.50;;;13.40;17.50;;;;;;4977260;28;20058;-73
2024/03/19 08:43:39;;;;;;;0.90;0.50;;;13.40;16.70;;;;;;4986933;28;20057;-73
2024/03/19 08:46:06;;;;;;;1.20;0.68;;;13.30;16.50;;;;;;4993721;28;20065;-73
2024/03/19 08:48:32;;;;;;;0.93;0.40;;;13.30;17.30;;;;;;4979321;28;20045;-73
2024/03/19 08:50:58;;;;;;;0.88;0.40;;;13.30;19.10;;;;;;4981231;28;20081;-72
2024/03/19 08:53:23;;;;;;;1.02;0.43;;;13.40;20.40;;;;;;4989116;28;20053;-74
2024/03/19 08:55:56;;;;;;;1.75;0.40;;;13.60;21.60;;;;;;4990653;28;20500;-74
2024/03/19 08:58:22;;;;;;;0.68;0.40;;;13.70;20.70;;;;;;4989864;28;20045;-74
2024/03/19 09:00:48;;;;;;;0.57;0.47;;;13.80;17.80;;;;;;4995281;28;20129;-74
2024/03/19 09:03:14;;;;;;;0.85;0.45;;;13.90;17.30;;;;;;4991950;28;20069;-74
2024/03/19 09:05:40;;;;;;;0.88;0.38;;;13.90;15.40;;;;;;4992509;28;20463;-74
2024/03/19 09:08:06;;;;;;;1.45;0.80;;;13.90;16.60;;;;;;4994551;28;20104;-71
2024/03/19 09:10:33;;;;;;;0.80;0.50;;;13.90;12.90;;;;;;4995308;28;20053;-71
2024/03/19 09:12:59;;;;;;;2.05;0.70;;;13.70;13.50;;;;;;4989014;28;20050;-71
2024/03/19 09:15:26;;;;;;;0.80;0.50;;;13.60;13.60;;;;;;4991141;28;20678;-71
2024/03/19 09:17:55;;;;;;;1.00;0.50;;;13.50;15.20;;;;;;4994791;28;20413;-70
2024/03/19 09:20:21;;;;;;;1.88;0.70;;;13.50;17.10;;;;;;4995235;28;20053;-71
2024/03/19 09:22:49;;;;;;;1.02;0.50;;;13.60;17.70;;;;;;4993793;28;20201;-71
2024/03/19 09:25:16;;;;;;;1.33;0.82;;;13.70;18.70;;;;;;4994352;28;20057;-71
2024/03/19 09:27:42;;;;;;;1.00;0.60;;;13.90;17.10;;;;;;4995949;28;20084;-70
2024/03/19 09:30:09;;;;;;;1.35;0.50;;;13.90;17.70;;;;;;4998176;28;20061;-79
2024/03/19 09:32:36;;;;;;;1.67;0.50;;;13.90;11.80;;;;;;4981834;28;20058;-71
2024/03/19 09:35:03;;;;;;;1.13;0.60;;;13.80;12.10;;;;;;4998823;28;20057;-73
2024/03/19 09:37:31;;;;;;;1.70;0.75;;;13.70;13.50;;;;;;5002561;28;20046;-71
2024/03/19 09:39:57;;;;;;;1.35;0.70;;;13.70;14.60;;;;;;5001478;28;20050;-71
2024/03/19 09:42:24;;;;;;;0.90;0.63;;;13.80;16.90;;;;;;4970127;28;20058;-73
2024/03/19 09:44:53;;;;;;;0.52;0.50;;;13.90;14.90;;;;;;4969780;28;20045;-73
2024/03/19 09:47:20;;;;;;;0.95;0.52;;;14.00;15.50;;;;;;4985614;28;20058;-73
2024/03/19 09:49:46;;;;;;;0.68;0.50;;;14.20;15.90;;;;;;4966921;28;20058;-73
2024/03/19 09:52:16;;;;;;;0.50;0.40;;;14.50;17.40;;;;;;4966098;28;20391;-73
2024/03/19 09:54:42;;;;;;;0.68;0.50;;;14.50;10.80;;;;;;4984601;28;20054;-71
2024/03/19 09:57:12;;;;;;;1.20;0.93;;;14.70;9.20;;;;;;4972490;28;20466;-71
2024/03/19 09:59:39;;;;;;;0.60;0.52;;;14.70;13.40;;;;;;4935150;28;20062;-73
2024/03/19 10:02:29;;;;;;;1.08;0.60;;;14.80;4.40;;;;;;4970814;28;20050;-71
2024/03/19 10:04:55;;;;;;;1.08;0.82;;;14.70;1.00;;;;;;4982758;28;20838;-71
2024/03/19 10:07:21;;;;;;;0.90;0.73;;;14.80;1.00;;;;;;4973988;28;20057;-71
2024/03/19 10:09:48;;;;;;;0.77;0.50;;;14.70;1.00;;;;;;4988481;28;20050;-71
2024/03/19 10:12:14;;;;;;;0.77;0.50;;;14.70;1.00;;;;;;4972541;28;20049;-71
2024/03/19 10:14:40;;;;;;;0.75;0.50;;;14.70;1.00;;;;;;4969889;28;20061;-71
2024/03/19 10:17:09;;;;;;;1.58;0.60;;;14.60;1.00;;;;;;4986501;28;20061;-71
2024/03/19 10:19:35;;;;;;;0.65;0.40;;;14.50;1.00;;;;;;4970982;28;20054;-71
2024/03/19 10:22:01;;;;;;;1.02;0.50;;;14.40;1.00;;;;;;4969896;28;20377;-71
2024/03/19 10:24:27;;;;;;;0.50;0.40;;;14.40;1.00;;;;;;4984875;28;20509;-71
2024/03/19 10:26:55;;;;;;;0.95;0.30;;;14.50;1.00;;;;;;4986313;28;20489;-72
2024/03/19 10:29:20;;;;;;;0.45;0.32;;;14.70;4.30;;;;;;5004383;28;20073;-72
2024/03/19 10:31:46;;;;;;;0.43;0.40;;;14.80;1.00;;;;;;5005750;28;20047;-71
2024/03/19 10:34:20;;;;;;;0.55;0.47;;;14.70;1.00;;;;;;4990512;28;20058;-71
2024/03/19 10:36:55;;;;;;;1.30;0.50;;;14.70;1.00;;;;;;4969872;28;20054;-71
2024/03/19 10:39:21;;;;;;;0.63;0.47;;;14.90;1.00;;;;;;4984978;28;20062;-71
2024/03/19 10:41:51;;;;;;;0.40;0.40;;;14.80;1.00;;;;;;4985881;28;20517;-72
2024/03/19 10:44:21;;;;;;;1.20;0.60;;;14.80;1.00;;;;;;4985587;28;20046;-71
2024/03/19 10:46:50;;;;;;;0.50;0.30;;;15.00;1.00;;;;;;4970208;28;20070;-71
2024/03/19 10:49:17;;;;;;;0.52;0.38;;;15.10;1.00;;;;;;4953379;28;20085;-71
2024/03/19 10:51:51;;;;;;;1.23;0.47;;;15.10;1.00;;;;;;4969807;28;20074;-71
2024/03/19 10:54:18;;;;;;;1.10;0.50;;;15.00;1.00;;;;;;4984611;28;20050;-71
2024/03/19 10:56:44;;;;;;;0.60;0.30;;;14.90;1.00;;;;;;4953958;28;20054;-71
2024/03/19 10:59:13;;;;;;;1.65;0.40;;;14.80;1.00;;;;;;4953810;28;20109;-71
2024/03/19 11:01:46;;;;;;;0.95;0.47;;;14.80;1.00;;;;;;4953553;28;20113;-71
2024/03/19 11:04:15;;;;;;;0.60;0.33;;;14.70;1.00;;;;;;4968821;28;20050;-71
2024/03/19 11:06:42;;;;;;;0.75;0.40;;;14.70;1.00;;;;;;4969048;28;20050;-71
2024/03/19 11:09:20;;;;;;;0.32;0.32;;;14.80;1.10;;;;;;4984666;28;20058;-71
2024/03/19 11:12:10;;;;;;;1.58;0.57;;;14.90;1.00;;;;;;4968735;28;20414;-71
2024/03/19 11:14:37;;;;;;;1.20;0.50;;;14.90;1.00;;;;;;4984425;28;20403;-71
2024/03/19 11:17:04;;;;;;;0.52;0.32;;;14.90;1.00;;;;;;5004533;28;20050;-71
2024/03/19 11:19:30;;;;;;;2.03;0.55;;;14.90;1.00;;;;;;4988671;28;20054;-71
2024/03/19 11:21:59;;;;;;;0.40;0.30;;;14.70;1.00;;;;;;4988375;28;20081;-72
2024/03/19 11:24:38;;;;;;;0.73;0.40;;;14.70;1.00;;;;;;4985707;28;20059;-72
2024/03/19 11:27:07;;;;;;;1.27;0.50;;;14.60;1.00;;;;;;4982226;28;20057;-72
2024/03/19 11:29:37;;;;;;;0.60;0.50;;;14.70;1.00;;;;;;4983451;28;20061;-72
2024/03/19 11:32:06;;;;;;;1.50;0.40;;;14.60;1.00;;;;;;4985020;28;20857;-72
2024/03/19 11:34:32;;;;;;;0.50;0.40;;;14.60;1.00;;;;;;4984009;28;20050;-71
2024/03/19 11:37:00;;;;;;;1.50;0.60;;;14.60;1.00;;;;;;4985057;28;20061;-72
2024/03/19 11:39:27;;;;;;;1.17;0.40;;;14.50;1.00;;;;;;4967663;28;20050;-71
2024/03/19 11:41:54;;;;;;;0.85;0.40;;;14.50;1.00;;;;;;5002084;28;20054;-72
2024/03/19 11:44:21;;;;;;;2.58;0.70;;;14.40;1.00;;;;;;4986389;28;20050;-72
2024/03/19 11:46:48;;;;;;;0.80;0.40;;;14.30;1.50;;;;;;4977066;28;20583;-72
2024/03/19 11:49:24;;;;;;;1.00;0.50;;;14.40;3.40;;;;;;4969926;28;20057;-72
2024/03/19 11:52:03;;;;;;;0.40;0.40;;;14.50;2.80;;;;;;4981205;28;20057;-72
2024/03/19 11:54:29;;;;;;;0.95;0.40;;;14.60;3.90;;;;;;4989374;28;20075;-72
2024/03/19 11:56:56;;;;;;;0.80;0.50;;;14.70;4.10;;;;;;4979887;28;20065;-72
2024/03/19 11:59:25;;;;;;;0.57;0.38;;;14.80;4.10;;;;;;4946484;28;20409;-72
2024/03/19 12:01:56;;;;;;;0.90;0.40;;;14.80;1.00;;;;;;4955258;28;20050;-73
2024/03/19 12:04:31;;;;;;;0.52;0.45;;;14.70;1.00;;;;;;4974521;28;20069;-72
2024/03/19 12:06:57;;;;;;;1.20;0.47;;;14.80;2.20;;;;;;4997162;28;20061;-72
2024/03/19 12:09:25;;;;;;;1.00;0.50;;;14.90;3.00;;;;;;4966200;28;20066;-72
2024/03/19 12:11:51;;;;;;;1.08;0.40;;;14.70;1.00;;;;;;4976000;28;20050;-72
2024/03/19 12:14:20;;;;;;;0.98;0.40;;;14.70;1.80;;;;;;4980844;28;20185;-72
2024/03/19 12:16:47;;;;;;;0.47;0.45;;;14.70;3.20;;;;;;4966657;28;20058;-72
2024/03/19 12:19:15;;;;;;;0.43;0.30;;;14.80;3.00;;;;;;4980901;28;20543;-72
2024/03/19 12:21:42;;;;;;;0.55;0.22;;;14.80;2.10;;;;;;4964170;28;20054;-73
2024/03/19 12:24:15;;;;;;;0.22;0.20;;;14.90;3.60;;;;;;4947521;28;20058;-73
2024/03/19 12:26:43;;;;;;;;;;;15.10;3.60;;;;;;4949111;28;20069;-73
2024/03/19 12:29:20;;;;;;;0.30;0.30;;;15.30;1.00;;;;;;4985611;28;19926;-72
2024/03/19 12:32:02;;;;;;;0.38;0.35;;;15.20;1.00;;;;;;4968254;28;20639;-73
2024/03/19 12:37:10;;;;;;;0.20;0.20;;;15.20;1.00;;;;;;4967747;28;20115;-73
2024/03/19 12:39:36;;;;;;;0.25;0.25;;;15.30;1.00;;;;;;4979750;28;20100;-73
2024/03/19 12:42:03;;;;;;;0.30;0.30;;;15.30;1.00;;;;;;4979032;28;20058;-72
2024/03/19 12:44:29;;;;;;;0.45;0.30;;;15.30;1.00;;;;;;4981863;28;20054;-73
2024/03/19 12:46:56;;;;;;;0.50;0.32;;;15.30;1.00;;;;;;4978619;28;20050;-73
2024/03/19 12:49:25;;;;;;;0.45;0.40;;;15.10;1.00;;;;;;4978760;28;20517;-73
2024/03/19 12:51:52;;;;;;;0.40;0.30;;;15.00;1.00;;;;;;4977297;28;20506;-74